Time;durP1;ratioP1;P1;durP2;ratioP2;P2;SDS_P1;SDS_P2;PMS_P1;PMS_P2;Temp;Humidity;BMP_temperature;BMP_pressure;BME280_temperature;BME280_humidity;BME280_pressure;Samples;Min_cycle;Max_cycle;Signal;HPM_P1;HPM_P2
2023/03/27 00:01:35;;;;;;;6.68;1.60;;;;;;;;;;4994695;28;20494;-64
2023/03/27 00:04:01;;;;;;;6.30;0.98;;;;;;;;;;5012219;28;20058;-64
2023/03/27 00:06:27;;;;;;;7.35;1.45;;;;;;;;;;5007314;28;20065;-64
2023/03/27 00:08:53;;;;;;;6.43;1.50;;;;;;;;;;4992700;28;20101;-64
2023/03/27 00:11:21;;;;;;;10.02;1.55;;;;;;;;;;4993036;28;20057;-64
2023/03/27 00:13:53;;;;;;;7.57;1.10;;;;;;;;;;4964711;28;20064;-64
2023/03/27 00:16:20;;;;;;;7.03;1.33;;;;;;;;;;4978369;28;20437;-64
2023/03/27 00:18:46;;;;;;;8.07;1.55;;;;;;;;;;4994727;28;20053;-64
2023/03/27 00:21:12;;;;;;;8.57;1.27;;;;;;;;;;5011972;28;20046;-63
2023/03/27 00:23:39;;;;;;;7.72;1.40;;;;;;;;;;5011982;28;20049;-64
2023/03/27 00:26:05;;;;;;;5.90;2.13;;;;;;;;;;4994598;28;20050;-64
2023/03/27 00:28:31;;;;;;;5.47;1.23;;;;;;;;;;4994033;28;20058;-64
2023/03/27 00:30:57;;;;;;;4.40;1.15;;;;;;;;;;4994050;28;20068;-63
2023/03/27 00:33:24;;;;;;;6.88;1.60;;;;;;;;;;4994310;28;20087;-64
2023/03/27 00:35:51;;;;;;;10.20;1.98;;;;;;;;;;4994891;28;20049;-64
2023/03/27 00:38:17;;;;;;;9.32;1.50;;;;;;;;;;4977849;28;20053;-64
2023/03/27 00:40:45;;;;;;;8.15;2.03;;;;;;;;;;4994699;28;20050;-64
2023/03/27 00:43:25;;;;;;;6.18;1.60;;;;;;;;;;4977846;28;20130;-64
2023/03/27 00:45:54;;;;;;;8.00;1.40;;;;;;;;;;4975724;28;20050;-64
2023/03/27 00:48:20;;;;;;;9.32;2.45;;;;;;;;;;4972751;28;20037;-64
2023/03/27 00:50:46;;;;;;;14.25;1.73;;;;;;;;;;4992362;28;20069;-64
2023/03/27 00:53:14;;;;;;;6.80;2.13;;;;;;;;;;4993930;28;20042;-64
2023/03/27 00:55:43;;;;;;;10.02;1.40;;;;;;;;;;5010298;28;20056;-64
2023/03/27 00:58:12;;;;;;;7.80;1.33;;;;;;;;;;4972411;28;20402;-65
2023/03/27 01:00:38;;;;;;;6.95;2.72;;;;;;;;;;4992659;28;20046;-64
2023/03/27 01:03:06;;;;;;;7.85;1.60;;;;;;;;;;4986828;28;20054;-64
2023/03/27 01:05:32;;;;;;;5.30;1.23;;;;;;;;;;4999413;28;20108;-64
2023/03/27 01:07:59;;;;;;;13.52;2.63;;;;;;;;;;4986484;28;20053;-64
2023/03/27 01:10:29;;;;;;;9.43;1.45;;;;;;;;;;4993910;28;20053;-64
2023/03/27 01:13:55;;;;;;;7.93;1.45;;;2.40;99.90;;;;;;4961887;28;20058;-64
2023/03/27 01:16:27;;;;;;;5.43;1.00;;;;;;;;;;4889059;29;20048;-64
2023/03/27 01:19:10;;;;;;;9.30;1.20;;;;;;;;;;4967917;23;20111;-63
2023/03/27 01:22:02;;;;;;;11.80;1.70;;;2.40;99.90;;;;;;5016377;23;20145;-64
2023/03/27 01:24:28;;;;;;;7.18;1.30;;;;;;;;;;4991025;28;20054;-64
2023/03/27 01:26:58;;;;;;;9.10;1.63;;;;;;;;;;5011876;28;20042;-64
2023/03/27 01:29:30;;;;;;;7.18;1.98;;;;;;;;;;5011593;28;20077;-64
2023/03/27 01:32:22;;;;;;;5.45;1.50;;;2.30;99.90;;;;;;5012265;28;20401;-64
2023/03/27 01:40:30;;;;;;;11.68;2.13;;;;;;;;;;5009533;23;20077;-64
2023/03/27 01:43:02;;;;;;;5.40;1.75;;;;;;;;;;4982168;28;20057;-64
2023/03/27 01:45:54;;;;;;;5.03;1.05;;;;;;;;;;4997510;28;20057;-64
2023/03/27 01:48:27;;;;;;;7.20;0.75;;;;;;;;;;4978232;28;20094;-64
2023/03/27 01:50:53;;;;;;;9.02;1.60;;;;;;;;;;5014873;28;20069;-64
2023/03/27 01:53:23;;;;;;;5.90;1.40;;;;;;;;;;5014664;28;20050;-64
2023/03/27 01:56:05;;;;;;;8.40;1.60;;;;;;;;;;4981661;28;20057;-64
2023/03/27 01:58:37;;;;;;;5.88;1.10;;;;;;;;;;4997715;28;20061;-64
2023/03/27 02:01:03;;;;;;;3.28;0.75;;;;;;;;;;4980884;28;20050;-64
2023/03/27 02:03:35;;;;;;;8.00;0.80;;;;;;;;;;4993182;28;20050;-64
2023/03/27 02:06:06;;;;;;;7.10;1.10;;;;;;;;;;4990421;28;20089;-64
2023/03/27 02:08:39;;;;;;;7.95;1.88;;;;;;;;;;4989349;28;20034;-64
2023/03/27 02:11:05;;;;;;;8.30;1.65;;;;;;;;;;4980055;28;20073;-64
2023/03/27 02:13:37;;;;;;;9.48;0.90;;;;;;;;;;5013374;28;20045;-64
2023/03/27 02:16:05;;;;;;;10.82;1.50;;;;;;;;;;4995381;28;20050;-64
2023/03/27 02:18:34;;;;;;;6.25;0.85;;;;;;;;;;5012216;28;20049;-65
2023/03/27 02:21:03;;;;;;;8.85;0.70;;;;;;;;;;5003043;28;20413;-65
2023/03/27 02:23:29;;;;;;;3.75;0.68;;;;;;;;;;4996218;28;20141;-64
2023/03/27 02:25:56;;;;;;;7.38;1.17;;;;;;;;;;5013361;28;20124;-66
2023/03/27 02:28:30;;;;;;;3.95;1.08;;;;;;;;;;5009706;28;20043;-65
2023/03/27 02:30:56;;;;;;;5.07;0.70;;;;;;;;;;5010055;28;20038;-65
2023/03/27 02:33:50;;;;;;;7.95;1.02;;;2.50;99.90;;;;;;4989835;28;20046;-65
2023/03/27 02:36:24;;;;;;;5.97;1.80;;;;;;;;;;5012278;28;20129;-65
2023/03/27 02:38:53;;;;;;;2.97;0.75;;;;;;;;;;5005491;28;20101;-65
2023/03/27 02:41:20;;;;;;;4.43;0.80;;;;;;;;;;4995470;28;20045;-65
2023/03/27 02:43:49;;;;;;;6.10;1.08;;;;;;;;;;4995307;28;20044;-65
2023/03/27 02:46:25;;;;;;;5.97;1.20;;;;;;;;;;5012616;28;20490;-65
2023/03/27 02:48:53;;;;;;;7.90;0.95;;;;;;;;;;5007641;28;20394;-65
2023/03/27 02:51:42;;;;;;;4.50;1.30;;;;;;;;;;4994215;28;20041;-65
2023/03/27 02:54:14;;;;;;;9.75;1.77;;;;;;;;;;5000299;28;20512;-65
2023/03/27 02:56:46;;;;;;;3.35;1.13;;;;;;;;;;5009112;28;20051;-65
2023/03/27 02:59:21;;;;;;;5.93;0.82;;;;;;;;;;4978757;28;20509;-65
2023/03/27 03:01:47;;;;;;;6.80;3.13;;;;;;;;;;5010462;28;20049;-65
2023/03/27 03:04:23;;;;;;;8.95;1.75;;;;;;;;;;4989218;28;20413;-65
2023/03/27 03:06:50;;;;;;;4.05;0.95;;;;;;;;;;5004315;28;20046;-66
2023/03/27 03:09:17;;;;;;;5.32;2.58;;;;;;;;;;5012158;28;20109;-65
2023/03/27 03:11:45;;;;;;;2.45;0.60;;;;;;;;;;4994359;28;20049;-65
2023/03/27 03:14:12;;;;;;;4.53;0.90;;;;;;;;;;5008156;28;20034;-65
2023/03/27 03:16:38;;;;;;;7.00;1.00;;;;;;;;;;4978848;28;20053;-65
2023/03/27 03:19:04;;;;;;;6.13;1.10;;;;;;;;;;5011618;28;20134;-64
2023/03/27 03:21:30;;;;;;;9.70;1.73;;;;;;;;;;5008937;28;20053;-65
2023/03/27 03:23:56;;;;;;;7.30;1.00;;;;;;;;;;4994401;28;20049;-64
2023/03/27 03:26:23;;;;;;;5.57;1.27;;;;;;;;;;5012374;28;20053;-65
2023/03/27 03:28:49;;;;;;;5.13;1.80;;;;;;;;;;4993730;28;20054;-65
2023/03/27 03:31:15;;;;;;;6.63;1.10;;;;;;;;;;5011160;28;20045;-65
2023/03/27 03:33:41;;;;;;;6.63;1.30;;;;;;;;;;4980051;28;20049;-64
2023/03/27 03:36:08;;;;;;;5.53;1.30;;;;;;;;;;4993559;28;20042;-65
2023/03/27 03:38:34;;;;;;;4.97;1.17;;;;;;;;;;4971370;28;20053;-64
2023/03/27 03:41:00;;;;;;;4.57;0.82;;;;;;;;;;4979152;28;20601;-64
2023/03/27 03:43:28;;;;;;;5.32;1.08;;;;;;;;;;4978540;28;20506;-65
2023/03/27 03:45:54;;;;;;;13.93;1.70;;;;;;;;;;4982405;28;20515;-64
2023/03/27 03:48:21;;;;;;;7.28;1.60;;;;;;;;;;4975606;28;20477;-64
2023/03/27 03:50:48;;;;;;;5.28;1.25;;;;;;;;;;4960044;28;20077;-64
2023/03/27 03:53:15;;;;;;;3.78;1.45;;;;;;;;;;4976128;28;20050;-64
2023/03/27 03:55:41;;;;;;;6.70;1.13;;;;;;;;;;4988182;28;20045;-65
2023/03/27 03:58:08;;;;;;;4.38;1.20;;;;;;;;;;4995397;28;20073;-65
2023/03/27 04:00:37;;;;;;;5.45;1.70;;;;;;;;;;5012255;28;20042;-65
2023/03/27 04:03:03;;;;;;;6.82;1.35;;;;;;;;;;4976905;28;20104;-65
2023/03/27 04:05:30;;;;;;;6.25;1.50;;;;;;;;;;4994173;28;20089;-65
2023/03/27 04:07:58;;;;;;;5.47;1.48;;;;;;;;;;4977892;28;20050;-65
2023/03/27 04:10:24;;;;;;;9.65;1.17;;;;;;;;;;4994017;28;20050;-65
2023/03/27 04:12:51;;;;;;;6.68;1.55;;;;;;;;;;4990932;28;20081;-64
2023/03/27 04:15:17;;;;;;;10.55;1.67;;;;;;;;;;4986570;28;20413;-65
2023/03/27 04:17:43;;;;;;;4.68;1.35;;;;;;;;;;4993872;28;20049;-65
2023/03/27 04:20:11;;;;;;;7.13;1.80;;;;;;;;;;4976696;28;20045;-64
2023/03/27 04:22:38;;;;;;;5.65;1.70;;;;;;;;;;4994063;28;20042;-65
2023/03/27 04:25:07;;;;;;;3.90;1.40;;;;;;;;;;5010053;28;20467;-64
2023/03/27 04:27:34;;;;;;;17.73;2.90;;;;;;;;;;4973797;28;20540;-65
2023/03/27 04:30:01;;;;;;;10.95;3.22;;;;;;;;;;5008041;28;20410;-64
2023/03/27 04:32:27;;;;;;;12.45;2.38;;;;;;;;;;5010857;28;20038;-64
2023/03/27 04:34:53;;;;;;;14.00;3.40;;;;;;;;;;4993556;28;20103;-64
2023/03/27 04:37:21;;;;;;;9.25;2.95;;;;;;;;;;4993153;28;20049;-64
2023/03/27 04:39:47;;;;;;;9.05;3.15;;;;;;;;;;5004228;28;20065;-64
2023/03/27 04:42:13;;;;;;;9.93;2.50;;;;;;;;;;4993586;28;20069;-64
2023/03/27 04:44:40;;;;;;;8.88;2.35;;;;;;;;;;5005368;28;20062;-64
2023/03/27 04:47:09;;;;;;;10.00;2.10;;;;;;;;;;4990183;28;20568;-65
2023/03/27 04:49:37;;;;;;;10.40;2.17;;;;;;;;;;4993739;28;20049;-64
2023/03/27 04:52:04;;;;;;;7.25;2.40;;;;;;;;;;4993678;28;20045;-64
2023/03/27 04:54:30;;;;;;;13.55;1.90;;;;;;;;;;4975370;28;20445;-64
2023/03/27 04:56:56;;;;;;;6.90;1.10;;;;;;;;;;5000148;23;20146;-64
2023/03/27 05:01:49;;;;;;;5.60;1.20;;;;;;;;;;5033409;23;20115;-64
2023/03/27 05:04:15;;;;;;;9.23;2.17;;;;;;;;;;5011675;28;20436;-64
2023/03/27 05:06:41;;;;;;;5.60;1.50;;;;;;;;;;4996923;28;20489;-65
2023/03/27 05:09:07;;;;;;;9.15;1.85;;;;;;;;;;4998940;28;20042;-64
2023/03/27 05:11:34;;;;;;;6.50;1.55;;;;;;;;;;5015034;28;20069;-64
2023/03/27 05:14:00;;;;;;;3.55;1.00;;;;;;;;;;4991870;28;20045;-64
2023/03/27 05:16:26;;;;;;;10.30;1.70;;;;;;;;;;5033263;28;20045;-64
2023/03/27 05:18:53;;;;;;;9.82;1.20;;;;;;;;;;4999421;28;20477;-65
2023/03/27 05:21:19;;;;;;;6.65;1.23;;;;;;;;;;5016757;28;20041;-64
2023/03/27 05:23:45;;;;;;;7.75;1.38;;;;;;;;;;5034148;28;20102;-65
2023/03/27 05:26:11;;;;;;;7.63;1.38;;;;;;;;;;5033534;28;20041;-64
2023/03/27 05:28:38;;;;;;;8.18;1.42;;;;;;;;;;5034362;28;20092;-65
2023/03/27 05:31:04;;;;;;;8.75;1.48;;;;;;;;;;5016691;28;20125;-65
2023/03/27 05:33:33;;;;;;;6.60;1.33;;;;;;;;;;5017370;28;20429;-65
2023/03/27 05:36:01;;;;;;;8.90;2.40;;;;;;;;;;5017487;28;20398;-64
2023/03/27 05:38:27;;;;;;;5.45;0.90;;;;;;;;;;5033702;28;20095;-65
2023/03/27 05:40:53;;;;;;;3.47;0.95;;;;;;;;;;5016927;28;20088;-64
2023/03/27 05:43:20;;;;;;;7.80;1.00;;;;;;;;;;5034797;28;20045;-65
2023/03/27 05:45:46;;;;;;;3.28;0.80;;;;;;;;;;5035072;28;20041;-64
2023/03/27 05:48:12;;;;;;;6.32;1.00;;;;;;;;;;5034715;28;20049;-64
2023/03/27 05:50:38;;;;;;;8.15;1.33;;;;;;;;;;5016387;28;20085;-64
2023/03/27 05:53:07;;;;;;;4.40;0.82;;;;;;;;;;5016898;28;20049;-65
2023/03/27 05:55:33;;;;;;;4.47;0.93;;;;;;;;;;5016138;28;20064;-64
2023/03/27 05:57:59;;;;;;;6.05;1.15;;;;;;;;;;5017256;28;20136;-64
2023/03/27 06:00:26;;;;;;;6.55;2.85;;;;;;;;;;5013209;28;20137;-65
2023/03/27 06:02:56;;;;;;;3.75;1.10;;;;;;;;;;5012518;28;20053;-65
2023/03/27 06:05:22;;;;;;;3.67;1.02;;;;;;;;;;4993799;28;20052;-65
2023/03/27 06:07:49;;;;;;;10.90;1.40;;;;;;;;;;5009882;28;20047;-65
2023/03/27 06:10:17;;;;;;;8.15;1.85;;;;;;;;;;4994895;28;20096;-65
2023/03/27 06:12:43;;;;;;;1.77;1.10;;;;;;;;;;4994983;28;20085;-64
2023/03/27 06:15:10;;;;;;;7.40;1.23;;;;;;;;;;5010763;28;20069;-65
2023/03/27 06:17:39;;;;;;;13.65;1.65;;;;;;;;;;5011834;28;20061;-64
2023/03/27 06:20:10;;;;;;;7.20;1.10;;;;;;;;;;4992985;28;20049;-65
2023/03/27 06:22:44;;;;;;;6.13;1.23;;;;;;;;;;5008720;28;20100;-65
2023/03/27 06:25:11;;;;;;;5.15;1.08;;;;;;;;;;5009935;28;20046;-64
2023/03/27 06:27:38;;;;;;;12.00;2.35;;;;;;;;;;5009678;28;20050;-65
2023/03/27 06:30:04;;;;;;;4.00;0.90;;;;;;;;;;5010236;28;20042;-65
2023/03/27 06:32:30;;;;;;;4.68;0.90;;;;;;;;;;5009736;28;20270;-65
2023/03/27 06:34:56;;;;;;;8.73;1.15;;;;;;;;;;5013476;28;20045;-66
2023/03/27 06:37:23;;;;;;;4.60;1.20;;;;;;;;;;5012836;28;20049;-65
2023/03/27 06:39:50;;;;;;;4.10;0.88;;;;;;;;;;5011805;28;20049;-65
2023/03/27 06:42:16;;;;;;;5.45;1.00;;;;;;;;;;5013215;28;20092;-64
2023/03/27 06:44:42;;;;;;;9.73;1.13;;;;;;;;;;4991923;28;20092;-65
2023/03/27 06:47:08;;;;;;;3.75;0.57;;;;;;;;;;5013219;28;20077;-65
2023/03/27 06:49:34;;;;;;;7.20;0.80;;;;;;;;;;5011554;28;20053;-64
2023/03/27 06:52:01;;;;;;;5.25;0.80;;;;;;;;;;5013989;28;20107;-64
2023/03/27 06:54:28;;;;;;;3.85;0.75;;;;;;;;;;5011737;28;20494;-67
2023/03/27 06:56:54;;;;;;;3.72;0.70;;;;;;;;;;4993268;28;20085;-65
2023/03/27 06:59:20;;;;;;;10.38;0.95;;;;;;;;;;4992535;28;20050;-65
2023/03/27 07:01:46;;;;;;;7.38;0.95;;;;;;;;;;4993083;28;20136;-64
2023/03/27 07:04:12;;;;;;;2.92;0.60;;;;;;;;;;5013573;28;20042;-65
2023/03/27 07:06:39;;;;;;;8.27;1.13;;;;;;;;;;5013725;28;20049;-64
2023/03/27 07:09:05;;;;;;;6.88;1.20;;;;;;;;;;5012337;28;20042;-64
2023/03/27 07:11:31;;;;;;;6.38;1.10;;;;;;;;;;5012342;28;20352;-64
2023/03/27 07:13:57;;;;;;;3.83;0.70;;;;;;;;;;5012507;28;20129;-64
2023/03/27 07:16:23;;;;;;;3.55;0.85;;;;;;;;;;5013644;28;20184;-65
2023/03/27 07:18:49;;;;;;;7.88;1.33;;;;;;;;;;5011658;28;20169;-64
2023/03/27 07:21:15;;;;;;;4.57;0.88;;;;;;;;;;5012718;28;20046;-65
2023/03/27 07:23:41;;;;;;;13.82;1.20;;;;;;;;;;5011321;28;20453;-65
2023/03/27 07:26:07;;;;;;;6.80;1.35;;;;;;;;;;5010642;28;20050;-65
2023/03/27 07:28:37;;;;;;;8.25;1.25;;;;;;;;;;4994253;28;20053;-66
2023/03/27 07:31:06;;;;;;;8.15;0.93;;;;;;;;;;5009097;28;20128;-66
2023/03/27 07:33:32;;;;;;;6.35;0.90;;;;;;;;;;5010607;28;20101;-65
2023/03/27 07:35:58;;;;;;;7.57;0.90;;;;;;;;;;5002197;28;20391;-65
2023/03/27 07:38:25;;;;;;;3.17;0.90;;;;;;;;;;5011127;28;20069;-66
2023/03/27 07:40:51;;;;;;;6.50;0.90;;;;;;;;;;4993495;28;20061;-65
2023/03/27 07:43:17;;;;;;;7.28;1.10;;;;;;;;;;5011768;28;20042;-65
2023/03/27 07:45:44;;;;;;;3.40;0.85;;;;;;;;;;5003530;28;20461;-65
2023/03/27 07:48:14;;;;;;;4.18;0.68;;;;;;;;;;4993329;28;20053;-65
2023/03/27 07:50:41;;;;;;;5.50;1.27;;;;;;;;;;5011633;28;20058;-66
2023/03/27 07:53:07;;;;;;;7.15;1.67;;;;;;;;;;5011139;28;20046;-65
2023/03/27 07:55:36;;;;;;;9.45;1.58;;;;;;;;;;5012505;28;20046;-65
2023/03/27 07:58:02;;;;;;;5.95;1.08;;;;;;;;;;4995296;28;20053;-65
2023/03/27 08:00:29;;;;;;;5.25;0.80;;;;;;;;;;5015355;28;20061;-65
2023/03/27 08:03:05;;;;;;;5.25;0.90;;;;;;;;;;4996960;28;20085;-65
2023/03/27 08:05:31;;;;;;;7.03;0.73;;;;;;;;;;5001599;23;20054;-65
2023/03/27 08:07:58;;;;;;;4.72;0.63;;;;;;;;;;4978610;28;20065;-64
2023/03/27 08:10:24;;;;;;;9.82;0.82;;;;;;;;;;4994999;28;20057;-66
2023/03/27 08:12:50;;;;;;;5.20;0.45;;;;;;;;;;4979352;28;20066;-66
2023/03/27 08:15:17;;;;;;;8.18;1.75;;;;;;;;;;4994542;28;20057;-65
2023/03/27 08:17:43;;;;;;;5.30;0.82;;;;;;;;;;4993770;28;20042;-65
2023/03/27 08:20:53;;;;;;;2.90;1.27;;;6.20;99.90;;;;;;5017094;22;20494;-65
2023/03/27 08:23:19;;;;;;;2.85;0.73;;;;;;;;;;4969670;28;20082;-65
2023/03/27 08:25:49;;;;;;;2.38;0.50;;;;;;;;;;4971160;28;20053;-65
2023/03/27 08:28:15;;;;;;;4.43;0.63;;;;;;;;;;4952160;29;20051;-65
2023/03/27 08:30:41;;;;;;;5.55;0.77;;;;;;;;;;4930167;28;20066;-65
2023/03/27 08:33:09;;;;;;;5.07;0.50;;;;;;;;;;4939560;28;20503;-65
2023/03/27 08:35:36;;;;;;;5.20;0.82;;;;;;;;;;4972128;28;20179;-65
2023/03/27 08:38:02;;;;;;;9.88;1.10;;;;;;;;;;4939710;28;20051;-65
2023/03/27 08:40:29;;;;;;;7.50;1.30;;;;;;;;;;4939668;28;20047;-65
2023/03/27 08:42:57;;;;;;;4.13;0.70;;;;;;;;;;4954085;28;20058;-65
2023/03/27 08:45:32;;;;;;;4.00;1.15;;;;;;;;;;4939507;28;20418;-65
2023/03/27 08:48:07;;;;;;;8.40;1.48;;;;;;;;;;4971159;28;20051;-64
2023/03/27 08:50:37;;;;;;;10.20;1.40;;;;;;;;;;4968852;28;20082;-65
2023/03/27 08:53:06;;;;;;;7.32;1.10;;;;;;;;;;4958141;28;20043;-64
2023/03/27 08:55:42;;;;;;;4.95;1.20;;;;;;;;;;4953716;28;20046;-64
2023/03/27 08:58:16;;;;;;;6.53;0.95;;;;;;;;;;4963556;28;20076;-64
2023/03/27 09:00:42;;;;;;;8.48;1.33;;;;;;;;;;4966868;28;20499;-64
2023/03/27 09:03:21;;;;;;;3.83;0.70;;;;;;;;;;4969145;28;20117;-63
2023/03/27 09:05:52;;;;;;;8.18;0.93;;;;;;;;;;4947880;28;20047;-64
2023/03/27 09:08:21;;;;;;;7.50;1.10;;;;;;;;;;4966243;28;20047;-64
2023/03/27 09:10:47;;;;;;;5.22;0.88;;;;;;;;;;4965400;28;20491;-64
2023/03/27 09:13:20;;;;;;;3.38;1.20;;;;;;;;;;4966637;28;20089;-63
2023/03/27 09:15:46;;;;;;;8.60;1.40;;;;;;;;;;4962308;28;20524;-64
2023/03/27 09:18:15;;;;;;;3.22;0.63;;;;;;;;;;4947772;28;20071;-64
2023/03/27 09:20:48;;;;;;;11.43;1.42;;;;;;;;;;4966160;28;20063;-64
2023/03/27 09:23:14;;;;;;;4.50;0.65;;;;;;;;;;4963447;28;20051;-65
2023/03/27 09:25:44;;;;;;;8.82;1.00;;;;;;;;;;4960888;28;20102;-64
2023/03/27 09:28:19;;;;;;;1.85;0.55;;;;;;;;;;4942172;28;20047;-64
2023/03/27 09:30:46;;;;;;;4.78;0.85;;;;;;;;;;4974457;28;20043;-65
2023/03/27 09:33:12;;;;;;;8.98;1.08;;;;;;;;;;4953867;28;20043;-65
2023/03/27 09:35:38;;;;;;;8.52;1.15;;;;;;;;;;4972277;28;20039;-64
2023/03/27 09:38:23;;;;;;;7.45;2.25;;;;;;;;;;4955447;28;20098;-64
2023/03/27 09:40:53;;;;;;;6.22;1.00;;;;;;;;;;4971853;28;20035;-65
2023/03/27 09:43:22;;;;;;;7.15;0.85;;;;;;;;;;4939096;28;20046;-64
2023/03/27 09:45:51;;;;;;;9.95;2.00;;;;;;;;;;4955288;28;20035;-65
2023/03/27 09:48:36;;;;;;;8.23;1.35;;;;;;;;;;4953227;28;20050;-65
2023/03/27 09:51:04;;;;;;;9.07;1.63;;;;;;;;;;4970217;28;20046;-65
2023/03/27 09:53:30;;;;;;;6.47;1.00;;;;;;;;;;4955858;28;20043;-64
2023/03/27 09:55:58;;;;;;;1.85;0.68;;;;;;;;;;4958381;28;20066;-65
2023/03/27 09:58:27;;;;;;;4.38;0.63;;;;;;;;;;4942741;28;20077;-64
2023/03/27 10:01:14;;;;;;;4.28;1.35;;;;;;;;;;4956975;28;20530;-65
2023/03/27 10:03:42;;;;;;;4.85;0.73;;;;;;;;;;4968867;28;20511;-65
2023/03/27 10:06:10;;;;;;;5.85;0.82;;;;;;;;;;4964538;28;20459;-64
2023/03/27 10:08:40;;;;;;;3.30;0.60;;;;;;;;;;4946962;28;20058;-65
2023/03/27 10:11:07;;;;;;;2.67;0.70;;;;;;;;;;4941523;28;20054;-64
2023/03/27 10:13:34;;;;;;;6.47;1.05;;;;;;;;;;4957114;28;20051;-65
2023/03/27 10:16:03;;;;;;;3.17;0.68;;;;;;;;;;4965896;28;20074;-65
2023/03/27 10:18:30;;;;;;;4.57;0.90;;;;;;;;;;4944804;28;20046;-65
2023/03/27 10:20:58;;;;;;;1.25;0.40;;;;;;;;;;4941786;28;20094;-64
2023/03/27 10:23:28;;;;;;;2.15;0.50;;;;;;;;;;4944231;29;20043;-64
2023/03/27 10:26:00;;;;;;;4.45;0.93;;;;;;;;;;4954348;28;20404;-65
2023/03/27 10:28:27;;;;;;;1.05;0.40;;;;;;;;;;4972675;28;20046;-65
2023/03/27 10:31:02;;;;;;;2.17;0.38;;;;;;;;;;4988580;28;20078;-64
2023/03/27 10:33:39;;;;;;;2.38;0.63;;;;;;;;;;4957057;28;20047;-65
2023/03/27 10:36:06;;;;;;;1.63;0.60;;;;;;;;;;4951735;28;20051;-65
2023/03/27 10:38:33;;;;;;;4.03;0.70;;;;;;;;;;4941039;28;20051;-64
2023/03/27 10:40:59;;;;;;;3.03;0.98;;;;;;;;;;4972600;28;20046;-64
2023/03/27 10:43:25;;;;;;;2.42;0.65;;;;;;;;;;4962009;28;20049;-65
2023/03/27 10:45:55;;;;;;;6.38;0.80;;;;;;;;;;4976113;28;20475;-64
2023/03/27 10:48:47;;;;;;;4.40;0.70;;;;;;;;;;4970233;28;20054;-64
2023/03/27 10:51:24;;;;;;;3.95;0.70;;;;;;;;;;4954126;28;20055;-65
2023/03/27 10:53:54;;;;;;;5.40;0.70;;;;;;;;;;4988908;28;20051;-66
2023/03/27 10:56:26;;;;;;;8.18;0.50;;;;;;;;;;4944442;28;20137;-65
2023/03/27 10:58:59;;;;;;;2.25;0.57;;;;;;;;;;4958391;28;20051;-65
2023/03/27 11:01:33;;;;;;;7.00;0.73;;;;;;;;;;4940874;28;20106;-64
2023/03/27 11:04:08;;;;;;;3.83;0.88;;;;;;;;;;4973994;28;20046;-64
2023/03/27 11:06:38;;;;;;;1.40;1.10;;;;;;;;;;4974126;28;20403;-65
2023/03/27 11:09:08;;;;;;;7.60;0.80;;;;;;;;;;4972552;28;20089;-65
2023/03/27 11:11:36;;;;;;;9.90;1.38;;;;;;;;;;4956268;28;20065;-65
2023/03/27 11:14:04;;;;;;;5.90;0.85;;;;;;;;;;4932491;28;20399;-66
2023/03/27 11:16:54;;;;;;;3.58;0.63;;;;;;;;;;4962796;28;20122;-64
2023/03/27 11:19:54;;;;;;;2.42;0.50;;;;;;;;;;4926823;28;20409;-65
2023/03/27 11:22:30;;;;;;;7.32;1.10;;;;;;;;;;4901390;28;20129;-65
2023/03/27 11:25:09;;;;;;;5.72;1.27;;;;;;;;;;4947311;28;20130;-65
2023/03/27 11:27:40;;;;;;;2.60;0.60;;;;;;;;;;4954237;28;20129;-64
2023/03/27 11:30:09;;;;;;;3.08;0.80;;;;;;;;;;4935489;28;20046;-65
2023/03/27 11:32:38;;;;;;;3.22;0.52;;;;;;;;;;4948319;28;20522;-65
2023/03/27 11:35:12;;;;;;;6.15;0.73;;;;;;;;;;4949840;28;20046;-66
2023/03/27 11:37:47;;;;;;;5.72;0.70;;;;;;;;;;4963515;28;20042;-64
2023/03/27 11:40:19;;;;;;;10.93;0.95;;;;;;;;;;4946946;28;20050;-63
2023/03/27 11:45:32;;;;;;;6.90;0.88;;;;;;;;;;4976652;23;20117;-64
2023/03/27 11:51:29;;;;;;;6.40;0.80;;;;;;;;;;4949246;28;20043;-65
2023/03/27 11:53:58;;;;;;;6.63;0.90;;;;;;;;;;4949360;28;20190;-64
2023/03/27 11:56:27;;;;;;;4.30;0.52;;;;;;;;;;4947444;28;20126;-63
2023/03/27 11:59:13;;;;;;;4.90;2.35;;;;;;;;;;4950166;29;20062;-64
2023/03/27 12:01:39;;;;;;;4.82;0.75;;;;;;;;;;4923638;29;20043;-64
2023/03/27 12:04:23;;;;;;;3.28;0.70;;;;;;;;;;4926673;29;20070;-65
2023/03/27 12:06:49;;;;;;;1.95;0.40;;;;;;;;;;4943145;29;20090;-65
2023/03/27 12:09:27;;;;;;;4.97;1.00;;;;;;;;;;4927419;29;20130;-64
2023/03/27 12:12:16;;;;;;;6.35;0.75;;;;;;;;;;4930974;29;20058;-64
2023/03/27 12:14:52;;;;;;;3.47;0.80;;;;;;;;;;4945531;29;20047;-65
2023/03/27 12:17:18;;;;;;;7.20;1.25;;;;;;;;;;4944361;29;20464;-65
2023/03/27 12:19:44;;;;;;;4.00;0.90;;;;;;;;;;4947008;29;20078;-64
2023/03/27 12:22:10;;;;;;;10.02;1.40;;;;;;;;;;4940658;28;20047;-66
2023/03/27 12:24:45;;;;;;;7.35;1.15;;;;;;;;;;4950701;29;20051;-65
2023/03/27 12:27:11;;;;;;;3.83;1.20;;;;;;;;;;4952572;29;20051;-63
2023/03/27 12:29:49;;;;;;;6.40;1.23;;;;;;;;;;4953460;29;20511;-65
2023/03/27 12:32:24;;;;;;;5.03;1.98;;;;;;;;;;4939438;28;20088;-65
2023/03/27 12:35:02;;;;;;;5.65;1.75;;;;;;;;;;4933442;29;20484;-65
2023/03/27 12:37:30;;;;;;;7.50;1.00;;;;;;;;;;4948906;29;20079;-66
2023/03/27 12:39:58;;;;;;;5.10;1.00;;;;;;;;;;4952297;28;20058;-65
2023/03/27 12:42:39;;;;;;;7.60;2.00;;;;;;;;;;4931876;29;20500;-65
2023/03/27 12:45:17;;;;;;;5.53;1.30;;;;;;;;;;4935015;29;20480;-65
2023/03/27 12:48:05;;;;;;;6.03;0.93;;;8.40;99.90;;;;;;4933403;29;20047;-65
2023/03/27 12:50:40;;;;;;;1.98;0.60;;;;;;;;;;4941726;28;20055;-66
2023/03/27 12:53:07;;;;;;;3.08;0.90;;;;;;;;;;4937582;29;20057;-63
2023/03/27 12:55:35;;;;;;;7.18;1.10;;;;;;;;;;4946898;28;20043;-65
2023/03/27 12:58:03;;;;;;;3.60;0.77;;;;;;;;;;4947086;29;20036;-65
2023/03/27 13:00:29;;;;;;;6.25;0.60;;;;;;;;;;4936291;29;20046;-64
2023/03/27 13:03:05;;;;;;;8.93;1.15;;;;;;;;;;4951964;28;20134;-64
2023/03/27 13:05:49;;;;;;;7.07;1.27;;;;;;;;;;4952845;28;20651;-65
2023/03/27 13:08:34;;;;;;;4.80;1.00;;;;;;;;;;4948613;29;20063;-64
2023/03/27 13:11:03;;;;;;;4.95;0.88;;;;;;;;;;4934195;29;20489;-64
2023/03/27 13:13:45;;;;;;;6.57;0.90;;;;;;;;;;4950617;29;20172;-64
2023/03/27 13:16:22;;;;;;;4.95;0.80;;;;;;;;;;4947325;28;20485;-64
2023/03/27 13:18:54;;;;;;;9.57;1.25;;;;;;;;;;4942004;28;20056;-64
2023/03/27 13:21:20;;;;;;;6.95;1.75;;;;;;;;;;4942292;29;20043;-64
2023/03/27 13:23:52;;;;;;;8.98;1.05;;;;;;;;;;4950127;29;20051;-65
2023/03/27 13:26:22;;;;;;;3.38;0.82;;;;;;;;;;4949035;28;20047;-65
2023/03/27 13:28:49;;;;;;;6.47;1.77;;;;;;;;;;4944590;29;20057;-65
2023/03/27 13:31:34;;;;;;;11.77;1.20;;;;;;;;;;4953416;28;20051;-65
2023/03/27 13:34:11;;;;;;;6.75;1.30;;;;;;;;;;4955699;28;20043;-64
2023/03/27 13:36:41;;;;;;;5.28;0.73;;;;;;;;;;4969424;28;20043;-64
2023/03/27 13:39:07;;;;;;;39.83;4.43;;;;;;;;;;4950685;29;20048;-63
2023/03/27 13:41:39;;;;;;;7.40;1.00;;;;;;;;;;4952566;29;20090;-64
2023/03/27 13:44:09;;;;;;;6.38;0.90;;;;;;;;;;4953039;28;20047;-65
2023/03/27 13:46:38;;;;;;;5.65;0.70;;;;;;;;;;4937563;29;20047;-64
2023/03/27 13:49:09;;;;;;;6.68;1.02;;;;;;;;;;4954095;29;20499;-65
2023/03/27 13:52:11;;;;;;;7.32;2.25;;;;;;;;;;4949653;28;20059;-64
2023/03/27 13:54:37;;;;;;;8.05;1.27;;;;;;;;;;4923035;29;20047;-64
2023/03/27 13:57:16;;;;;;;6.53;1.00;;;;;;;;;;4905846;29;20056;-64
2023/03/27 13:59:47;;;;;;;8.52;1.45;;;;;;;;;;4936919;29;20106;-64
2023/03/27 14:02:13;;;;;;;7.15;0.68;;;;;;;;;;4914816;29;20123;-64
2023/03/27 14:04:52;;;;;;;10.15;1.05;;;;;;;;;;4933472;29;20551;-64
2023/03/27 14:07:47;;;;;;;4.20;1.17;;;9.40;99.90;;;;;;4925703;29;20524;-65
2023/03/27 14:10:34;;;;;;;4.15;0.70;;;;;;;;;;4931449;29;20051;-64
2023/03/27 14:13:20;;;;;;;2.80;0.75;;;;;;;;;;4918362;29;20046;-64
2023/03/27 14:15:46;;;;;;;8.35;2.10;;;;;;;;;;4900535;29;20098;-64
2023/03/27 14:18:12;;;;;;;8.23;1.20;;;;;;;;;;4925749;29;20551;-63
2023/03/27 14:20:38;;;;;;;3.95;1.10;;;;;;;;;;4932483;29;20050;-65
2023/03/27 14:23:06;;;;;;;9.98;1.25;;;;;;;;;;4932487;29;20048;-64
2023/03/27 14:25:33;;;;;;;9.30;0.90;;;;;;;;;;4927741;29;20047;-64
2023/03/27 14:27:59;;;;;;;5.05;0.77;;;;;;;;;;4938989;29;20055;-64
2023/03/27 14:30:26;;;;;;;5.85;0.98;;;;;;;;;;4951139;28;20040;-65
2023/03/27 14:32:56;;;;;;;8.43;0.90;;;;;;;;;;4969849;28;20066;-64
2023/03/27 14:35:28;;;;;;;5.00;0.95;;;;;;;;;;4954475;28;20062;-64
2023/03/27 14:37:55;;;;;;;9.00;1.98;;;;;;;;;;4964088;28;20051;-64
2023/03/27 14:40:23;;;;;;;5.47;1.02;;;;;;;;;;4937662;29;20281;-65
2023/03/27 14:42:50;;;;;;;7.82;1.35;;;;;;;;;;4955010;29;20043;-64
2023/03/27 14:45:22;;;;;;;6.82;1.33;;;;;;;;;;4954304;29;20054;-64
2023/03/27 14:47:49;;;;;;;12.20;1.52;;;;;;;;;;4953371;28;20497;-64
2023/03/27 14:50:16;;;;;;;7.93;3.38;;;;;;;;;;4934208;29;20055;-63
2023/03/27 14:52:43;;;;;;;10.00;1.40;;;;;;;;;;4936672;29;20059;-64
2023/03/27 14:55:12;;;;;;;6.75;1.23;;;;;;;;;;4937663;29;20043;-64
2023/03/27 14:57:40;;;;;;;3.38;0.80;;;;;;;;;;4936691;29;20051;-64
2023/03/27 15:00:16;;;;;;;8.65;1.42;;;;;;;;;;4993648;23;20058;-64
2023/03/27 15:02:43;;;;;;;5.07;1.33;;;;;;;;;;4976844;23;20564;-63
2023/03/27 15:05:12;;;;;;;4.28;1.00;;;;;;;;;;5030027;23;20053;-64
2023/03/27 15:07:41;;;;;;;6.25;0.90;;;;;;;;;;5012906;28;20493;-64
2023/03/27 15:10:11;;;;;;;7.32;0.75;;;;;;;;;;5003349;28;20054;-64
2023/03/27 15:12:37;;;;;;;9.60;1.17;;;;;;;;;;5013788;28;20050;-64